America — WDE6076 — position and weather

sailwx.info

Track history (hours):
 
Tides and Currents Weather Stations Pressure Air Temp Water Temp Dewpoint Dewpoint Depression Visibility Wind Speed Wind Dir Waves Ship Positions

America

Owner: ET Yacht, LLC, San Diego, CA. More information available from US FCC via Universal Licensing System and Coast Guard Vessel Documentation Center.

Last reported at 2016-Jun-18 21:28 UTC. Time now 2016-Jul-01 06:25 UTC.
Position N 39°39' W 070°38'.
Warning: this ship's position is 12 days out of date.

Length 42 m; draft 3.5 m.

Type: Sailing vessel. MMSI: 367375550.

Date/timePositionNaut miles runAvg speedWind from/ knotsBaromVisibWave heightAir tempDewpointWater temp
2016-Jun-18 21:28N 39°39' W 070°38'5 5.9
2016-Jun-18 20:33N 39°44' W 070°42'36 4.5
2016-Jun-18 12:30N 40°18' W 070°57'4 4.1
2016-Jun-18 11:30N 40°22' W 070°59'4 4.6
2016-Jun-18 10:33N 40°27' W 070°59'4 3.7
2016-Jun-18 09:23N 40°31' W 071°01'35 4.2
2016-Jun-18 01:04N 41°06' W 071°02'26 4.6
2016-Jun-17 19:25N 41°26' W 071°24'3 2.2
2016-Jun-17 18:08N 41°28' W 071°22'2 1.2
2016-Jun-17 16:09N 41°29' W 071°19'0 0.0
2016-Jun-17 14:28N 41°29' W 071°19'0 0.0
2016-Jun-17 09:23N 41°29' W 071°19'0 0.0
2016-Jun-17 08:27N 41°29' W 071°19'0 0.0
2016-Jun-17 07:29N 41°29' W 071°19'0 0.0
2016-Jun-17 06:25N 41°29' W 071°19'0 0.0
2016-Jun-17 05:33N 41°29' W 071°19'0 0.0
2016-Jun-17 04:33N 41°29' W 071°19'0 0.0
2016-Jun-17 03:32N 41°29' W 071°19'0 0.0
2016-Jun-17 02:26N 41°29' W 071°19'0 0.0
2016-Jun-17 01:27N 41°29' W 071°19'0 0.0
2016-Jun-17 00:27N 41°29' W 071°19'0 0.0
2016-Jun-16 23:08N 41°29' W 071°19'0 0.0
2016-Jun-16 21:22N 41°29' W 071°19'0 0.0
2016-Jun-16 20:26N 41°29' W 071°19'17 5.5
2016-Jun-16 17:18N 41°19' W 071°38'7 9.5
2016-Jun-16 16:33N 41°18' W 071°47'  
2016-Jun-11 11:19N 41°17' W 072°02'16 8.7
2016-Jun-11 09:32N 41°06' W 072°16'4 4.0
2016-Jun-11 08:33N 41°06' W 072°22'0 0.0
2016-Jun-11 07:33N 41°06' W 072°22'0 0.0
2016-Jun-11 06:33N 41°06' W 072°22'0 0.0
2016-Jun-11 05:32N 41°06' W 072°22'0 0.0
2016-Jun-11 04:28N 41°06' W 072°22'0 0.0
2016-Jun-11 03:28N 41°06' W 072°22'0 0.0
2016-Jun-11 02:28N 41°06' W 072°22'0 0.0
2016-Jun-11 00:30N 41°06' W 072°22'0 0.5
2016-Jun-10 23:33N 41°06' W 072°21'4 4.0
2016-Jun-10 22:28N 41°07' W 072°15'4 4.8
2016-Jun-10 21:33N 41°06' W 072°21'0 0.4
2016-Jun-10 20:26N 41°06' W 072°22'0 0.0
2016-Jun-10 19:15N 41°06' W 072°22'0 0.0
2016-Jun-10 18:29N 41°06' W 072°22'0 0.0
2016-Jun-10 17:33N 41°06' W 072°22'0 0.0
2016-Jun-10 16:28N 41°06' W 072°22'0 0.0
2016-Jun-10 15:28N 41°06' W 072°22'0 0.0
2016-Jun-10 14:29N 41°06' W 072°22'3 2.7
2016-Jun-10 13:31N 41°06' W 072°18'  
Track history (hours):
 
Tides and Currents Weather Stations Pressure Air Temp Water Temp Dewpoint Dewpoint Depression Visibility Wind Speed Wind Dir Waves Ship Positions

America

Owner: ET Yacht, LLC, San Diego, CA. More information available from US FCC via Universal Licensing System and Coast Guard Vessel Documentation Center.

Last reported at 2016-Jun-18 21:28 UTC. Time now 2016-Jul-01 06:25 UTC.
Position N 39°39' W 070°38'.
Warning: this ship's position is 12 days out of date.

Length 42 m; draft 3.5 m.

Type: Sailing vessel. MMSI: 367375550.

Date/timePositionNaut miles runAvg speedWind from/ knotsBaromVisibWave heightAir tempDewpointWater temp
2016-Jun-18 21:28N 39°39' W 070°38'5 5.9
2016-Jun-18 20:33N 39°44' W 070°42'36 4.5
2016-Jun-18 12:30N 40°18' W 070°57'4 4.1
2016-Jun-18 11:30N 40°22' W 070°59'4 4.6
2016-Jun-18 10:33N 40°27' W 070°59'4 3.7
2016-Jun-18 09:23N 40°31' W 071°01'35 4.2
2016-Jun-18 01:04N 41°06' W 071°02'26 4.6
2016-Jun-17 19:25N 41°26' W 071°24'3 2.2
2016-Jun-17 18:08N 41°28' W 071°22'2 1.2
2016-Jun-17 16:09N 41°29' W 071°19'0 0.0
2016-Jun-17 14:28N 41°29' W 071°19'0 0.0
2016-Jun-17 09:23N 41°29' W 071°19'0 0.0
2016-Jun-17 08:27N 41°29' W 071°19'0 0.0
2016-Jun-17 07:29N 41°29' W 071°19'0 0.0
2016-Jun-17 06:25N 41°29' W 071°19'0 0.0
2016-Jun-17 05:33N 41°29' W 071°19'0 0.0
2016-Jun-17 04:33N 41°29' W 071°19'0 0.0
2016-Jun-17 03:32N 41°29' W 071°19'0 0.0
2016-Jun-17 02:26N 41°29' W 071°19'0 0.0
2016-Jun-17 01:27N 41°29' W 071°19'0 0.0
2016-Jun-17 00:27N 41°29' W 071°19'0 0.0
2016-Jun-16 23:08N 41°29' W 071°19'0 0.0
2016-Jun-16 21:22N 41°29' W 071°19'0 0.0
2016-Jun-16 20:26N 41°29' W 071°19'17 5.5
2016-Jun-16 17:18N 41°19' W 071°38'7 9.5
2016-Jun-16 16:33N 41°18' W 071°47'  
2016-Jun-11 11:19N 41°17' W 072°02'16 8.7
2016-Jun-11 09:32N 41°06' W 072°16'4 4.0
2016-Jun-11 08:33N 41°06' W 072°22'0 0.0
2016-Jun-11 07:33N 41°06' W 072°22'0 0.0
2016-Jun-11 06:33N 41°06' W 072°22'0 0.0
2016-Jun-11 05:32N 41°06' W 072°22'0 0.0
2016-Jun-11 04:28N 41°06' W 072°22'0 0.0
2016-Jun-11 03:28N 41°06' W 072°22'0 0.0
2016-Jun-11 02:28N 41°06' W 072°22'0 0.0
2016-Jun-11 00:30N 41°06' W 072°22'0 0.5
2016-Jun-10 23:33N 41°06' W 072°21'4 4.0
2016-Jun-10 22:28N 41°07' W 072°15'4 4.8
2016-Jun-10 21:33N 41°06' W 072°21'0 0.4
2016-Jun-10 20:26N 41°06' W 072°22'0 0.0
2016-Jun-10 19:15N 41°06' W 072°22'0 0.0
2016-Jun-10 18:29N 41°06' W 072°22'0 0.0
2016-Jun-10 17:33N 41°06' W 072°22'0 0.0
2016-Jun-10 16:28N 41°06' W 072°22'0 0.0
2016-Jun-10 15:28N 41°06' W 072°22'0 0.0
2016-Jun-10 14:29N 41°06' W 072°22'3 2.7
2016-Jun-10 13:31N 41°06' W 072°18'  

Dump ship's entire track history